sensor_id;sensor_type;location;lat;lon;timestamp;P1;durP1;ratioP1;P2;durP2;ratioP2
9364;SDS011;4722;49.340;9.800;2023-02-28T00:00:01;3.88;;;1.70;;
9364;SDS011;4722;49.340;9.800;2023-02-28T00:02:34;3.30;;;1.73;;
9364;SDS011;4722;49.340;9.800;2023-02-28T00:05:00;5.47;;;1.98;;
9364;SDS011;4722;49.340;9.800;2023-02-28T00:07:26;3.38;;;2.10;;
9364;SDS011;4722;49.340;9.800;2023-02-28T00:09:53;2.50;;;1.60;;
9364;SDS011;4722;49.340;9.800;2023-02-28T00:12:18;4.50;;;1.98;;
9364;SDS011;4722;49.340;9.800;2023-02-28T00:14:44;3.38;;;2.00;;
9364;SDS011;4722;49.340;9.800;2023-02-28T00:17:10;2.75;;;1.52;;
9364;SDS011;4722;49.340;9.800;2023-02-28T00:19:36;3.83;;;1.90;;
9364;SDS011;4722;49.340;9.800;2023-02-28T00:22:02;3.85;;;2.20;;
9364;SDS011;4722;49.340;9.800;2023-02-28T00:24:28;3.08;;;1.63;;
9364;SDS011;4722;49.340;9.800;2023-02-28T00:26:54;6.03;;;1.63;;
9364;SDS011;4722;49.340;9.800;2023-02-28T00:29:20;4.15;;;2.03;;
9364;SDS011;4722;49.340;9.800;2023-02-28T00:31:46;3.75;;;1.95;;
9364;SDS011;4722;49.340;9.800;2023-02-28T00:34:12;3.75;;;2.00;;
9364;SDS011;4722;49.340;9.800;2023-02-28T00:36:38;3.20;;;1.90;;
9364;SDS011;4722;49.340;9.800;2023-02-28T00:39:05;4.78;;;2.20;;
9364;SDS011;4722;49.340;9.800;2023-02-28T00:41:31;5.28;;;1.85;;
9364;SDS011;4722;49.340;9.800;2023-02-28T00:43:57;3.80;;;2.13;;
9364;SDS011;4722;49.340;9.800;2023-02-28T00:46:23;3.45;;;2.10;;
9364;SDS011;4722;49.340;9.800;2023-02-28T00:48:49;5.38;;;2.10;;
9364;SDS011;4722;49.340;9.800;2023-02-28T00:51:15;4.07;;;1.88;;
9364;SDS011;4722;49.340;9.800;2023-02-28T00:53:41;3.78;;;1.77;;
9364;SDS011;4722;49.340;9.800;2023-02-28T00:56:07;3.28;;;1.80;;
9364;SDS011;4722;49.340;9.800;2023-02-28T00:58:33;3.85;;;2.30;;
9364;SDS011;4722;49.340;9.800;2023-02-28T01:00:59;3.20;;;2.20;;
9364;SDS011;4722;49.340;9.800;2023-02-28T01:03:25;3.58;;;1.92;;
9364;SDS011;4722;49.340;9.800;2023-02-28T01:05:51;4.07;;;1.70;;
9364;SDS011;4722;49.340;9.800;2023-02-28T01:08:21;2.55;;;1.73;;
9364;SDS011;4722;49.340;9.800;2023-02-28T01:10:47;4.00;;;2.08;;
9364;SDS011;4722;49.340;9.800;2023-02-28T01:13:13;4.32;;;1.65;;
9364;SDS011;4722;49.340;9.800;2023-02-28T01:15:50;4.45;;;2.10;;
9364;SDS011;4722;49.340;9.800;2023-02-28T01:18:16;3.70;;;2.20;;
9364;SDS011;4722;49.340;9.800;2023-02-28T01:20:42;3.47;;;1.88;;
9364;SDS011;4722;49.340;9.800;2023-02-28T01:23:08;7.63;;;1.95;;
9364;SDS011;4722;49.340;9.800;2023-02-28T01:25:35;3.17;;;1.77;;
9364;SDS011;4722;49.340;9.800;2023-02-28T01:28:01;3.83;;;2.15;;
9364;SDS011;4722;49.340;9.800;2023-02-28T01:30:27;3.90;;;1.98;;
9364;SDS011;4722;49.340;9.800;2023-02-28T01:32:53;5.57;;;2.92;;
9364;SDS011;4722;49.340;9.800;2023-02-28T01:35:19;5.10;;;2.42;;
9364;SDS011;4722;49.340;9.800;2023-02-28T01:37:45;7.78;;;3.00;;
9364;SDS011;4722;49.340;9.800;2023-02-28T01:40:11;6.18;;;3.25;;
9364;SDS011;4722;49.340;9.800;2023-02-28T01:42:37;8.35;;;3.33;;
9364;SDS011;4722;49.340;9.800;2023-02-28T01:45:15;10.20;;;4.15;;
9364;SDS011;4722;49.340;9.800;2023-02-28T01:47:43;12.43;;;4.40;;
9364;SDS011;4722;49.340;9.800;2023-02-28T01:50:15;7.00;;;3.53;;
9364;SDS011;4722;49.340;9.800;2023-02-28T01:52:42;9.47;;;3.13;;
9364;SDS011;4722;49.340;9.800;2023-02-28T01:55:08;7.15;;;2.97;;
9364;SDS011;4722;49.340;9.800;2023-02-28T01:57:40;7.88;;;3.30;;
9364;SDS011;4722;49.340;9.800;2023-02-28T02:00:11;8.70;;;3.33;;
9364;SDS011;4722;49.340;9.800;2023-02-28T02:02:39;8.25;;;3.13;;
9364;SDS011;4722;49.340;9.800;2023-02-28T02:05:12;7.50;;;2.90;;
9364;SDS011;4722;49.340;9.800;2023-02-28T02:07:40;4.97;;;2.47;;
9364;SDS011;4722;49.340;9.800;2023-02-28T02:12:41;5.03;;;2.70;;
9364;SDS011;4722;49.340;9.800;2023-02-28T02:15:16;9.27;;;3.65;;
9364;SDS011;4722;49.340;9.800;2023-02-28T02:17:46;7.20;;;3.25;;
9364;SDS011;4722;49.340;9.800;2023-02-28T02:20:25;6.70;;;3.15;;
9364;SDS011;4722;49.340;9.800;2023-02-28T02:25:42;7.60;;;2.63;;
9364;SDS011;4722;49.340;9.800;2023-02-28T02:39:13;6.35;;;2.85;;
9364;SDS011;4722;49.340;9.800;2023-02-28T02:41:47;5.43;;;2.47;;
9364;SDS011;4722;49.340;9.800;2023-02-28T02:44:18;7.57;;;3.47;;
9364;SDS011;4722;49.340;9.800;2023-02-28T02:46:47;7.32;;;4.15;;
9364;SDS011;4722;49.340;9.800;2023-02-28T02:49:15;5.03;;;3.03;;
9364;SDS011;4722;49.340;9.800;2023-02-28T02:51:42;4.93;;;2.43;;
9364;SDS011;4722;49.340;9.800;2023-02-28T02:54:13;9.85;;;3.72;;
9364;SDS011;4722;49.340;9.800;2023-02-28T02:56:41;8.23;;;3.30;;
9364;SDS011;4722;49.340;9.800;2023-02-28T02:59:09;7.05;;;2.65;;
9364;SDS011;4722;49.340;9.800;2023-02-28T03:01:37;6.90;;;2.88;;
9364;SDS011;4722;49.340;9.800;2023-02-28T03:04:07;6.15;;;2.67;;
9364;SDS011;4722;49.340;9.800;2023-02-28T03:06:33;4.55;;;2.53;;
9364;SDS011;4722;49.340;9.800;2023-02-28T03:09:00;6.95;;;3.22;;
9364;SDS011;4722;49.340;9.800;2023-02-28T03:11:26;7.57;;;3.78;;
9364;SDS011;4722;49.340;9.800;2023-02-28T03:22:22;4.50;;;2.40;;
9364;SDS011;4722;49.340;9.800;2023-02-28T03:24:43;5.05;;;3.00;;
9364;SDS011;4722;49.340;9.800;2023-02-28T03:27:23;14.37;;;3.83;;
9364;SDS011;4722;49.340;9.800;2023-02-28T03:32:42;7.03;;;3.45;;
9364;SDS011;4722;49.340;9.800;2023-02-28T03:35:13;5.80;;;2.73;;
9364;SDS011;4722;49.340;9.800;2023-02-28T03:37:40;5.00;;;2.65;;
9364;SDS011;4722;49.340;9.800;2023-02-28T03:40:08;4.63;;;2.58;;
9364;SDS011;4722;49.340;9.800;2023-02-28T03:42:37;6.55;;;2.70;;
9364;SDS011;4722;49.340;9.800;2023-02-28T03:45:05;5.05;;;2.50;;
9364;SDS011;4722;49.340;9.800;2023-02-28T03:47:39;8.15;;;2.75;;
9364;SDS011;4722;49.340;9.800;2023-02-28T03:50:29;3.55;;;2.15;;
9364;SDS011;4722;49.340;9.800;2023-02-28T03:52:57;4.00;;;2.38;;
9364;SDS011;4722;49.340;9.800;2023-02-28T03:55:28;5.75;;;2.40;;
9364;SDS011;4722;49.340;9.800;2023-02-28T03:58:01;7.22;;;2.30;;
9364;SDS011;4722;49.340;9.800;2023-02-28T04:00:31;4.03;;;2.37;;
9364;SDS011;4722;49.340;9.800;2023-02-28T04:02:58;4.15;;;2.53;;
9364;SDS011;4722;49.340;9.800;2023-02-28T04:05:24;5.32;;;2.47;;
9364;SDS011;4722;49.340;9.800;2023-02-28T04:07:51;4.13;;;2.20;;
9364;SDS011;4722;49.340;9.800;2023-02-28T04:10:17;6.00;;;2.10;;
9364;SDS011;4722;49.340;9.800;2023-02-28T04:12:43;4.73;;;2.60;;
9364;SDS011;4722;49.340;9.800;2023-02-28T04:15:09;4.68;;;2.20;;
9364;SDS011;4722;49.340;9.800;2023-02-28T04:17:36;5.38;;;2.55;;
9364;SDS011;4722;49.340;9.800;2023-02-28T04:20:02;7.85;;;2.60;;
9364;SDS011;4722;49.340;9.800;2023-02-28T04:22:28;4.90;;;2.38;;
9364;SDS011;4722;49.340;9.800;2023-02-28T04:24:54;4.05;;;2.20;;
9364;SDS011;4722;49.340;9.800;2023-02-28T04:27:21;5.63;;;2.75;;
9364;SDS011;4722;49.340;9.800;2023-02-28T04:29:47;6.95;;;2.78;;
9364;SDS011;4722;49.340;9.800;2023-02-28T04:32:13;3.50;;;2.40;;
9364;SDS011;4722;49.340;9.800;2023-02-28T04:34:39;4.30;;;2.58;;
9364;SDS011;4722;49.340;9.800;2023-02-28T04:37:05;5.13;;;2.60;;
9364;SDS011;4722;49.340;9.800;2023-02-28T04:39:34;7.28;;;2.72;;
9364;SDS011;4722;49.340;9.800;2023-02-28T04:42:00;5.30;;;2.78;;
9364;SDS011;4722;49.340;9.800;2023-02-28T04:44:26;7.43;;;2.42;;
9364;SDS011;4722;49.340;9.800;2023-02-28T04:46:52;7.65;;;2.60;;
9364;SDS011;4722;49.340;9.800;2023-02-28T04:49:18;5.35;;;2.75;;
9364;SDS011;4722;49.340;9.800;2023-02-28T04:51:44;5.80;;;2.97;;
9364;SDS011;4722;49.340;9.800;2023-02-28T04:54:10;4.70;;;2.70;;
9364;SDS011;4722;49.340;9.800;2023-02-28T04:56:36;4.87;;;2.80;;
9364;SDS011;4722;49.340;9.800;2023-02-28T04:59:02;5.93;;;2.70;;
9364;SDS011;4722;49.340;9.800;2023-02-28T05:01:29;4.63;;;2.13;;
9364;SDS011;4722;49.340;9.800;2023-02-28T05:03:57;5.63;;;2.75;;
9364;SDS011;4722;49.340;9.800;2023-02-28T05:06:24;5.55;;;2.42;;
9364;SDS011;4722;49.340;9.800;2023-02-28T05:08:51;7.07;;;2.72;;
9364;SDS011;4722;49.340;9.800;2023-02-28T05:11:21;6.22;;;2.03;;
9364;SDS011;4722;49.340;9.800;2023-02-28T05:13:48;6.30;;;2.60;;
9364;SDS011;4722;49.340;9.800;2023-02-28T05:16:14;6.00;;;2.40;;
9364;SDS011;4722;49.340;9.800;2023-02-28T05:18:40;4.88;;;2.13;;
9364;SDS011;4722;49.340;9.800;2023-02-28T05:21:12;6.80;;;2.80;;
9364;SDS011;4722;49.340;9.800;2023-02-28T05:23:43;9.85;;;3.95;;
9364;SDS011;4722;49.340;9.800;2023-02-28T05:26:09;7.10;;;3.60;;
9364;SDS011;4722;49.340;9.800;2023-02-28T05:28:35;7.65;;;3.40;;
9364;SDS011;4722;49.340;9.800;2023-02-28T05:31:01;8.38;;;3.67;;
9364;SDS011;4722;49.340;9.800;2023-02-28T05:33:27;7.90;;;3.60;;
9364;SDS011;4722;49.340;9.800;2023-02-28T05:35:53;6.57;;;3.20;;
9364;SDS011;4722;49.340;9.800;2023-02-28T05:38:19;6.13;;;3.10;;
9364;SDS011;4722;49.340;9.800;2023-02-28T05:40:44;17.08;;;5.50;;
9364;SDS011;4722;49.340;9.800;2023-02-28T05:43:10;11.27;;;4.60;;
9364;SDS011;4722;49.340;9.800;2023-02-28T05:45:37;8.30;;;4.00;;
9364;SDS011;4722;49.340;9.800;2023-02-28T05:48:03;9.70;;;4.20;;
9364;SDS011;4722;49.340;9.800;2023-02-28T05:50:28;9.43;;;4.93;;
9364;SDS011;4722;49.340;9.800;2023-02-28T05:52:54;10.35;;;3.80;;
9364;SDS011;4722;49.340;9.800;2023-02-28T05:55:20;11.02;;;4.20;;
9364;SDS011;4722;49.340;9.800;2023-02-28T05:57:46;6.53;;;4.03;;
9364;SDS011;4722;49.340;9.800;2023-02-28T06:00:13;4.97;;;2.55;;
9364;SDS011;4722;49.340;9.800;2023-02-28T06:02:40;6.75;;;3.63;;
9364;SDS011;4722;49.340;9.800;2023-02-28T06:05:13;7.25;;;3.90;;
9364;SDS011;4722;49.340;9.800;2023-02-28T06:07:39;7.72;;;4.70;;
9364;SDS011;4722;49.340;9.800;2023-02-28T06:10:05;11.52;;;3.78;;
9364;SDS011;4722;49.340;9.800;2023-02-28T06:12:31;7.87;;;3.80;;
9364;SDS011;4722;49.340;9.800;2023-02-28T06:14:57;8.73;;;3.60;;
9364;SDS011;4722;49.340;9.800;2023-02-28T06:17:23;7.83;;;4.43;;
9364;SDS011;4722;49.340;9.800;2023-02-28T06:19:49;7.23;;;3.33;;
9364;SDS011;4722;49.340;9.800;2023-02-28T06:22:15;6.60;;;3.50;;
9364;SDS011;4722;49.340;9.800;2023-02-28T06:24:41;7.97;;;3.47;;
9364;SDS011;4722;49.340;9.800;2023-02-28T06:27:07;6.57;;;3.10;;
9364;SDS011;4722;49.340;9.800;2023-02-28T06:29:33;9.52;;;4.00;;
9364;SDS011;4722;49.340;9.800;2023-02-28T06:32:00;6.15;;;3.72;;
9364;SDS011;4722;49.340;9.800;2023-02-28T06:34:26;5.70;;;3.20;;
9364;SDS011;4722;49.340;9.800;2023-02-28T06:36:52;5.23;;;3.43;;
9364;SDS011;4722;49.340;9.800;2023-02-28T06:39:18;6.33;;;3.43;;
9364;SDS011;4722;49.340;9.800;2023-02-28T06:41:44;9.23;;;3.83;;
9364;SDS011;4722;49.340;9.800;2023-02-28T06:44:12;6.57;;;3.10;;
9364;SDS011;4722;49.340;9.800;2023-02-28T06:46:39;7.68;;;3.92;;
9364;SDS011;4722;49.340;9.800;2023-02-28T06:49:05;7.13;;;3.47;;
9364;SDS011;4722;49.340;9.800;2023-02-28T06:51:33;8.05;;;3.85;;
9364;SDS011;4722;49.340;9.800;2023-02-28T06:53:59;7.30;;;3.80;;
9364;SDS011;4722;49.340;9.800;2023-02-28T06:56:25;6.97;;;3.65;;
9364;SDS011;4722;49.340;9.800;2023-02-28T06:58:51;8.90;;;4.22;;
9364;SDS011;4722;49.340;9.800;2023-02-28T07:01:18;12.77;;;5.05;;
9364;SDS011;4722;49.340;9.800;2023-02-28T07:03:44;9.90;;;4.40;;
9364;SDS011;4722;49.340;9.800;2023-02-28T07:06:10;7.72;;;3.90;;
9364;SDS011;4722;49.340;9.800;2023-02-28T07:08:36;7.43;;;4.07;;
9364;SDS011;4722;49.340;9.800;2023-02-28T07:11:02;7.60;;;3.70;;
9364;SDS011;4722;49.340;9.800;2023-02-28T07:13:29;7.72;;;3.55;;
9364;SDS011;4722;49.340;9.800;2023-02-28T07:15:59;4.93;;;2.92;;
9364;SDS011;4722;49.340;9.800;2023-02-28T07:18:25;6.10;;;3.67;;
9364;SDS011;4722;49.340;9.800;2023-02-28T07:20:52;7.60;;;3.38;;
9364;SDS011;4722;49.340;9.800;2023-02-28T07:23:18;6.65;;;3.20;;
9364;SDS011;4722;49.340;9.800;2023-02-28T07:25:44;7.18;;;3.75;;
9364;SDS011;4722;49.340;9.800;2023-02-28T07:28:10;6.50;;;3.65;;
9364;SDS011;4722;49.340;9.800;2023-02-28T07:30:37;6.95;;;3.67;;
9364;SDS011;4722;49.340;9.800;2023-02-28T07:33:03;7.85;;;3.70;;
9364;SDS011;4722;49.340;9.800;2023-02-28T07:35:29;6.75;;;3.83;;
9364;SDS011;4722;49.340;9.800;2023-02-28T07:37:57;6.83;;;3.30;;
9364;SDS011;4722;49.340;9.800;2023-02-28T07:40:23;7.70;;;3.92;;
9364;SDS011;4722;49.340;9.800;2023-02-28T07:42:49;6.10;;;3.38;;
9364;SDS011;4722;49.340;9.800;2023-02-28T07:45:15;6.35;;;3.65;;
9364;SDS011;4722;49.340;9.800;2023-02-28T07:47:42;9.55;;;3.65;;
9364;SDS011;4722;49.340;9.800;2023-02-28T07:50:09;9.38;;;4.32;;
9364;SDS011;4722;49.340;9.800;2023-02-28T07:52:36;9.97;;;4.53;;
9364;SDS011;4722;49.340;9.800;2023-02-28T07:55:02;6.80;;;4.05;;
9364;SDS011;4722;49.340;9.800;2023-02-28T07:57:29;8.27;;;4.32;;
9364;SDS011;4722;49.340;9.800;2023-02-28T07:59:55;6.63;;;3.37;;
9364;SDS011;4722;49.340;9.800;2023-02-28T08:02:21;6.77;;;3.20;;
9364;SDS011;4722;49.340;9.800;2023-02-28T08:04:47;5.80;;;3.40;;
9364;SDS011;4722;49.340;9.800;2023-02-28T08:07:14;6.23;;;3.67;;
9364;SDS011;4722;49.340;9.800;2023-02-28T08:09:40;8.63;;;3.92;;
9364;SDS011;4722;49.340;9.800;2023-02-28T08:12:07;7.47;;;3.80;;
9364;SDS011;4722;49.340;9.800;2023-02-28T08:14:33;7.90;;;3.67;;
9364;SDS011;4722;49.340;9.800;2023-02-28T08:16:59;7.60;;;3.78;;
9364;SDS011;4722;49.340;9.800;2023-02-28T08:19:25;7.63;;;4.15;;
9364;SDS011;4722;49.340;9.800;2023-02-28T08:21:51;9.43;;;4.00;;
9364;SDS011;4722;49.340;9.800;2023-02-28T08:24:17;7.95;;;4.13;;
9364;SDS011;4722;49.340;9.800;2023-02-28T08:26:43;8.88;;;4.38;;
9364;SDS011;4722;49.340;9.800;2023-02-28T08:29:09;8.30;;;4.00;;
9364;SDS011;4722;49.340;9.800;2023-02-28T08:31:35;6.85;;;3.83;;
9364;SDS011;4722;49.340;9.800;2023-02-28T08:34:05;8.23;;;4.25;;
9364;SDS011;4722;49.340;9.800;2023-02-28T08:36:31;8.30;;;3.75;;
9364;SDS011;4722;49.340;9.800;2023-02-28T08:38:57;6.90;;;3.72;;
9364;SDS011;4722;49.340;9.800;2023-02-28T08:41:24;4.97;;;2.70;;
9364;SDS011;4722;49.340;9.800;2023-02-28T08:43:51;8.40;;;3.65;;
9364;SDS011;4722;49.340;9.800;2023-02-28T08:46:17;4.53;;;2.55;;
9364;SDS011;4722;49.340;9.800;2023-02-28T08:48:43;5.25;;;3.38;;
9364;SDS011;4722;49.340;9.800;2023-02-28T08:51:11;6.45;;;2.83;;
9364;SDS011;4722;49.340;9.800;2023-02-28T08:53:37;7.13;;;2.40;;
9364;SDS011;4722;49.340;9.800;2023-02-28T08:56:14;4.15;;;2.78;;
9364;SDS011;4722;49.340;9.800;2023-02-28T08:58:41;9.15;;;2.78;;
9364;SDS011;4722;49.340;9.800;2023-02-28T09:01:12;6.38;;;3.15;;
9364;SDS011;4722;49.340;9.800;2023-02-28T09:03:39;7.05;;;2.40;;
9364;SDS011;4722;49.340;9.800;2023-02-28T09:06:06;6.00;;;2.13;;
9364;SDS011;4722;49.340;9.800;2023-02-28T09:08:32;10.05;;;2.78;;
9364;SDS011;4722;49.340;9.800;2023-02-28T09:10:58;5.05;;;2.72;;
9364;SDS011;4722;49.340;9.800;2023-02-28T09:13:25;9.38;;;2.60;;
9364;SDS011;4722;49.340;9.800;2023-02-28T09:15:52;5.97;;;3.63;;
9364;SDS011;4722;49.340;9.800;2023-02-28T09:18:18;5.97;;;2.63;;
9364;SDS011;4722;49.340;9.800;2023-02-28T09:20:44;6.55;;;2.97;;
9364;SDS011;4722;49.340;9.800;2023-02-28T09:23:10;10.20;;;3.60;;
9364;SDS011;4722;49.340;9.800;2023-02-28T09:25:37;7.25;;;3.08;;
9364;SDS011;4722;49.340;9.800;2023-02-28T09:28:03;8.55;;;3.20;;
9364;SDS011;4722;49.340;9.800;2023-02-28T09:30:30;9.55;;;3.70;;
9364;SDS011;4722;49.340;9.800;2023-02-28T09:32:56;6.38;;;3.70;;
9364;SDS011;4722;49.340;9.800;2023-02-28T09:35:22;5.10;;;3.15;;
9364;SDS011;4722;49.340;9.800;2023-02-28T09:37:50;7.85;;;3.63;;
9364;SDS011;4722;49.340;9.800;2023-02-28T09:40:20;5.47;;;2.60;;
9364;SDS011;4722;49.340;9.800;2023-02-28T09:42:48;8.63;;;3.33;;
9364;SDS011;4722;49.340;9.800;2023-02-28T09:45:22;7.65;;;3.58;;
9364;SDS011;4722;49.340;9.800;2023-02-28T09:47:48;5.25;;;3.30;;
9364;SDS011;4722;49.340;9.800;2023-02-28T09:50:18;7.35;;;2.83;;
9364;SDS011;4722;49.340;9.800;2023-02-28T09:52:45;7.63;;;3.10;;
9364;SDS011;4722;49.340;9.800;2023-02-28T09:57:41;8.63;;;2.92;;
9364;SDS011;4722;49.340;9.800;2023-02-28T10:00:21;6.25;;;3.88;;
9364;SDS011;4722;49.340;9.800;2023-02-28T10:06:12;8.30;;;4.15;;
9364;SDS011;4722;49.340;9.800;2023-02-28T10:08:26;5.72;;;3.28;;
9364;SDS011;4722;49.340;9.800;2023-02-28T10:11:03;7.55;;;4.00;;
9364;SDS011;4722;49.340;9.800;2023-02-28T10:13:33;4.95;;;3.03;;
9364;SDS011;4722;49.340;9.800;2023-02-28T10:18:48;6.28;;;4.40;;
9364;SDS011;4722;49.340;9.800;2023-02-28T10:21:18;4.07;;;3.00;;
9364;SDS011;4722;49.340;9.800;2023-02-28T10:23:46;9.15;;;3.63;;
9364;SDS011;4722;49.340;9.800;2023-02-28T10:26:13;9.60;;;3.50;;
9364;SDS011;4722;49.340;9.800;2023-02-28T10:28:41;9.38;;;3.88;;
9364;SDS011;4722;49.340;9.800;2023-02-28T10:31:10;9.95;;;4.25;;
9364;SDS011;4722;49.340;9.800;2023-02-28T10:33:37;7.43;;;4.80;;
9364;SDS011;4722;49.340;9.800;2023-02-28T10:36:03;10.80;;;3.97;;
9364;SDS011;4722;49.340;9.800;2023-02-28T10:41:07;7.07;;;4.32;;
9364;SDS011;4722;49.340;9.800;2023-02-28T10:43:34;8.85;;;4.22;;
9364;SDS011;4722;49.340;9.800;2023-02-28T10:48:29;8.18;;;4.43;;
9364;SDS011;4722;49.340;9.800;2023-02-28T10:50:55;5.80;;;3.78;;
9364;SDS011;4722;49.340;9.800;2023-02-28T10:55:56;6.63;;;3.58;;
9364;SDS011;4722;49.340;9.800;2023-02-28T10:58:24;12.38;;;3.90;;
9364;SDS011;4722;49.340;9.800;2023-02-28T11:00:50;5.93;;;4.05;;
9364;SDS011;4722;49.340;9.800;2023-02-28T11:03:50;6.05;;;3.88;;
9364;SDS011;4722;49.340;9.800;2023-02-28T11:06:51;9.70;;;5.03;;
9364;SDS011;4722;49.340;9.800;2023-02-28T11:08:59;9.15;;;3.10;;
9364;SDS011;4722;49.340;9.800;2023-02-28T11:11:29;7.60;;;3.70;;
9364;SDS011;4722;49.340;9.800;2023-02-28T11:14:05;6.47;;;3.38;;
9364;SDS011;4722;49.340;9.800;2023-02-28T11:16:35;9.10;;;4.20;;
9364;SDS011;4722;49.340;9.800;2023-02-28T11:19:03;7.50;;;3.10;;
9364;SDS011;4722;49.340;9.800;2023-02-28T11:21:31;4.97;;;2.97;;
9364;SDS011;4722;49.340;9.800;2023-02-28T11:26:48;8.60;;;4.40;;
9364;SDS011;4722;49.340;9.800;2023-02-28T11:34:38;5.60;;;2.97;;
9364;SDS011;4722;49.340;9.800;2023-02-28T11:37:05;5.13;;;3.50;;
9364;SDS011;4722;49.340;9.800;2023-02-28T11:39:35;9.05;;;4.20;;
9364;SDS011;4722;49.340;9.800;2023-02-28T11:42:07;7.00;;;3.88;;
9364;SDS011;4722;49.340;9.800;2023-02-28T11:44:49;9.75;;;4.35;;
9364;SDS011;4722;49.340;9.800;2023-02-28T11:47:37;6.97;;;3.55;;
9364;SDS011;4722;49.340;9.800;2023-02-28T11:55:25;8.02;;;3.55;;
9364;SDS011;4722;49.340;9.800;2023-02-28T11:58:04;7.40;;;4.00;;
9364;SDS011;4722;49.340;9.800;2023-02-28T12:01:03;5.90;;;3.58;;
9364;SDS011;4722;49.340;9.800;2023-02-28T12:03:37;7.07;;;4.32;;
9364;SDS011;4722;49.340;9.800;2023-02-28T12:09:04;7.47;;;3.92;;
9364;SDS011;4722;49.340;9.800;2023-02-28T12:11:37;9.27;;;4.65;;
9364;SDS011;4722;49.340;9.800;2023-02-28T12:17:03;7.45;;;4.35;;
9364;SDS011;4722;49.340;9.800;2023-02-28T12:22:27;14.43;;;3.85;;
9364;SDS011;4722;49.340;9.800;2023-02-28T12:25:00;6.60;;;3.75;;
9364;SDS011;4722;49.340;9.800;2023-02-28T12:27:28;8.00;;;4.40;;
9364;SDS011;4722;49.340;9.800;2023-02-28T12:30:00;8.43;;;3.75;;
9364;SDS011;4722;49.340;9.800;2023-02-28T12:32:29;9.30;;;3.40;;
9364;SDS011;4722;49.340;9.800;2023-02-28T12:37:36;8.60;;;3.83;;
9364;SDS011;4722;49.340;9.800;2023-02-28T12:40:16;7.10;;;3.33;;
9364;SDS011;4722;49.340;9.800;2023-02-28T12:42:47;8.73;;;3.60;;
9364;SDS011;4722;49.340;9.800;2023-02-28T12:45:17;7.28;;;3.97;;
9364;SDS011;4722;49.340;9.800;2023-02-28T12:47:44;9.73;;;3.35;;
9364;SDS011;4722;49.340;9.800;2023-02-28T12:50:12;6.25;;;3.55;;
9364;SDS011;4722;49.340;9.800;2023-02-28T12:55:10;11.73;;;3.20;;
9364;SDS011;4722;49.340;9.800;2023-02-28T12:57:47;9.00;;;4.15;;
9364;SDS011;4722;49.340;9.800;2023-02-28T13:00:16;11.80;;;4.22;;
9364;SDS011;4722;49.340;9.800;2023-02-28T13:05:38;7.97;;;3.90;;
9364;SDS011;4722;49.340;9.800;2023-02-28T13:10:52;8.32;;;3.63;;
9364;SDS011;4722;49.340;9.800;2023-02-28T13:13:22;9.18;;;3.33;;
9364;SDS011;4722;49.340;9.800;2023-02-28T13:16:05;12.70;;;4.43;;
9364;SDS011;4722;49.340;9.800;2023-02-28T13:21:07;10.77;;;3.65;;
9364;SDS011;4722;49.340;9.800;2023-02-28T13:29:21;10.13;;;4.07;;
9364;SDS011;4722;49.340;9.800;2023-02-28T13:32:18;8.65;;;3.72;;
9364;SDS011;4722;49.340;9.800;2023-02-28T13:47:39;7.22;;;4.13;;
9364;SDS011;4722;49.340;9.800;2023-02-28T13:50:14;13.68;;;4.07;;
9364;SDS011;4722;49.340;9.800;2023-02-28T13:53:03;9.20;;;3.97;;
9364;SDS011;4722;49.340;9.800;2023-02-28T13:55:35;8.68;;;3.85;;
9364;SDS011;4722;49.340;9.800;2023-02-28T14:01:07;7.47;;;3.63;;
9364;SDS011;4722;49.340;9.800;2023-02-28T14:04:02;6.20;;;3.03;;
9364;SDS011;4722;49.340;9.800;2023-02-28T14:06:32;6.45;;;3.45;;
9364;SDS011;4722;49.340;9.800;2023-02-28T14:11:26;7.82;;;3.47;;
9364;SDS011;4722;49.340;9.800;2023-02-28T14:13:53;12.98;;;4.68;;
9364;SDS011;4722;49.340;9.800;2023-02-28T14:16:23;7.03;;;3.67;;
9364;SDS011;4722;49.340;9.800;2023-02-28T14:19:01;6.63;;;3.72;;
9364;SDS011;4722;49.340;9.800;2023-02-28T14:21:32;8.57;;;3.95;;
9364;SDS011;4722;49.340;9.800;2023-02-28T14:29:03;8.23;;;4.10;;
9364;SDS011;4722;49.340;9.800;2023-02-28T14:31:37;9.45;;;2.97;;
9364;SDS011;4722;49.340;9.800;2023-02-28T14:36:35;8.57;;;4.47;;
9364;SDS011;4722;49.340;9.800;2023-02-28T14:39:05;7.88;;;2.97;;
9364;SDS011;4722;49.340;9.800;2023-02-28T14:41:33;8.27;;;4.07;;
9364;SDS011;4722;49.340;9.800;2023-02-28T14:44:13;6.22;;;3.53;;
9364;SDS011;4722;49.340;9.800;2023-02-28T14:46:39;4.97;;;3.58;;
9364;SDS011;4722;49.340;9.800;2023-02-28T14:49:07;6.72;;;3.42;;
9364;SDS011;4722;49.340;9.800;2023-02-28T14:51:38;6.35;;;3.60;;
9364;SDS011;4722;49.340;9.800;2023-02-28T14:54:04;6.78;;;2.85;;
9364;SDS011;4722;49.340;9.800;2023-02-28T14:56:37;7.05;;;3.47;;
9364;SDS011;4722;49.340;9.800;2023-02-28T15:01:29;6.25;;;3.40;;
9364;SDS011;4722;49.340;9.800;2023-02-28T15:03:59;9.43;;;4.35;;
9364;SDS011;4722;49.340;9.800;2023-02-28T15:06:26;6.78;;;3.47;;
9364;SDS011;4722;49.340;9.800;2023-02-28T15:09:09;9.98;;;3.72;;
9364;SDS011;4722;49.340;9.800;2023-02-28T15:11:35;6.75;;;4.60;;
9364;SDS011;4722;49.340;9.800;2023-02-28T15:14:02;8.23;;;3.80;;
9364;SDS011;4722;49.340;9.800;2023-02-28T15:19:00;7.47;;;3.50;;
9364;SDS011;4722;49.340;9.800;2023-02-28T15:21:30;5.65;;;2.63;;
9364;SDS011;4722;49.340;9.800;2023-02-28T15:24:02;8.10;;;3.75;;
9364;SDS011;4722;49.340;9.800;2023-02-28T15:26:30;10.38;;;4.00;;
9364;SDS011;4722;49.340;9.800;2023-02-28T15:29:04;8.70;;;4.25;;
9364;SDS011;4722;49.340;9.800;2023-02-28T15:31:31;6.63;;;3.00;;
9364;SDS011;4722;49.340;9.800;2023-02-28T15:33:58;6.30;;;3.45;;
9364;SDS011;4722;49.340;9.800;2023-02-28T15:36:32;7.47;;;4.45;;
9364;SDS011;4722;49.340;9.800;2023-02-28T15:39:02;9.25;;;4.03;;
9364;SDS011;4722;49.340;9.800;2023-02-28T15:41:29;9.00;;;3.53;;
9364;SDS011;4722;49.340;9.800;2023-02-28T15:44:15;5.22;;;3.10;;
9364;SDS011;4722;49.340;9.800;2023-02-28T15:46:43;13.23;;;4.32;;
9364;SDS011;4722;49.340;9.800;2023-02-28T15:49:16;12.27;;;4.32;;
9364;SDS011;4722;49.340;9.800;2023-02-28T15:51:43;5.45;;;3.17;;
9364;SDS011;4722;49.340;9.800;2023-02-28T15:54:12;8.52;;;4.25;;
9364;SDS011;4722;49.340;9.800;2023-02-28T15:56:44;8.05;;;4.05;;
9364;SDS011;4722;49.340;9.800;2023-02-28T15:59:14;6.35;;;3.80;;
9364;SDS011;4722;49.340;9.800;2023-02-28T16:01:41;7.20;;;2.90;;
9364;SDS011;4722;49.340;9.800;2023-02-28T16:04:13;7.13;;;3.90;;
9364;SDS011;4722;49.340;9.800;2023-02-28T16:06:40;10.75;;;4.55;;
9364;SDS011;4722;49.340;9.800;2023-02-28T16:09:09;9.55;;;3.78;;
9364;SDS011;4722;49.340;9.800;2023-02-28T16:11:37;6.20;;;2.50;;
9364;SDS011;4722;49.340;9.800;2023-02-28T16:14:04;5.65;;;2.97;;
9364;SDS011;4722;49.340;9.800;2023-02-28T16:16:30;4.50;;;2.95;;
9364;SDS011;4722;49.340;9.800;2023-02-28T16:18:56;6.43;;;3.08;;
9364;SDS011;4722;49.340;9.800;2023-02-28T16:21:23;10.75;;;3.63;;
9364;SDS011;4722;49.340;9.800;2023-02-28T16:23:49;6.43;;;2.88;;
9364;SDS011;4722;49.340;9.800;2023-02-28T16:26:19;7.68;;;4.03;;
9364;SDS011;4722;49.340;9.800;2023-02-28T16:28:47;6.82;;;4.80;;
9364;SDS011;4722;49.340;9.800;2023-02-28T16:31:13;7.60;;;3.83;;
9364;SDS011;4722;49.340;9.800;2023-02-28T16:33:41;7.82;;;3.92;;
9364;SDS011;4722;49.340;9.800;2023-02-28T16:36:09;8.55;;;3.70;;
9364;SDS011;4722;49.340;9.800;2023-02-28T16:38:35;7.93;;;4.63;;
9364;SDS011;4722;49.340;9.800;2023-02-28T16:41:01;6.80;;;3.22;;
9364;SDS011;4722;49.340;9.800;2023-02-28T16:43:27;12.75;;;4.60;;
9364;SDS011;4722;49.340;9.800;2023-02-28T16:45:54;7.40;;;3.42;;
9364;SDS011;4722;49.340;9.800;2023-02-28T16:48:21;7.70;;;3.65;;
9364;SDS011;4722;49.340;9.800;2023-02-28T16:50:47;8.70;;;4.60;;
9364;SDS011;4722;49.340;9.800;2023-02-28T16:53:13;8.30;;;3.80;;
9364;SDS011;4722;49.340;9.800;2023-02-28T16:55:39;8.38;;;3.58;;
9364;SDS011;4722;49.340;9.800;2023-02-28T16:58:06;6.20;;;3.83;;
9364;SDS011;4722;49.340;9.800;2023-02-28T17:00:32;12.00;;;4.53;;
9364;SDS011;4722;49.340;9.800;2023-02-28T17:02:58;5.82;;;4.05;;
9364;SDS011;4722;49.340;9.800;2023-02-28T17:05:25;8.50;;;4.40;;
9364;SDS011;4722;49.340;9.800;2023-02-28T17:07:51;8.27;;;4.65;;
9364;SDS011;4722;49.340;9.800;2023-02-28T17:10:19;7.75;;;3.75;;
9364;SDS011;4722;49.340;9.800;2023-02-28T17:12:45;5.85;;;3.53;;
9364;SDS011;4722;49.340;9.800;2023-02-28T17:15:12;9.95;;;3.60;;
9364;SDS011;4722;49.340;9.800;2023-02-28T17:17:38;8.27;;;3.05;;